sensor_id;sensor_type;location;lat;lon;timestamp;pressure;altitude;pressure_sealevel;temperature;humidity
13705;BME280;6924;52.122;9.952;2022-11-03T00:01:55;100817.66;;;8.98;77.71
13705;BME280;6924;52.122;9.952;2022-11-03T00:04:22;100810.59;;;9.00;77.82
13705;BME280;6924;52.122;9.952;2022-11-03T00:06:50;100814.13;;;9.11;76.88
13705;BME280;6924;52.122;9.952;2022-11-03T00:09:18;100811.78;;;9.18;76.41
13705;BME280;6924;52.122;9.952;2022-11-03T00:11:47;100806.63;;;9.25;76.82
13705;BME280;6924;52.122;9.952;2022-11-03T00:14:16;100808.00;;;9.28;76.14
13705;BME280;6924;52.122;9.952;2022-11-03T00:16:44;100805.13;;;9.33;76.44
13705;BME280;6924;52.122;9.952;2022-11-03T00:19:11;100800.03;;;9.35;75.87
13705;BME280;6924;52.122;9.952;2022-11-03T00:21:39;100800.50;;;9.42;75.98
13705;BME280;6924;52.122;9.952;2022-11-03T00:24:06;100795.94;;;9.46;74.71
13705;BME280;6924;52.122;9.952;2022-11-03T00:26:33;100798.97;;;9.50;74.96
13705;BME280;6924;52.122;9.952;2022-11-03T00:29:05;100804.88;;;9.54;75.10
13705;BME280;6924;52.122;9.952;2022-11-03T00:31:35;100805.41;;;9.56;75.12
13705;BME280;6924;52.122;9.952;2022-11-03T00:34:03;100797.03;;;9.50;74.87
13705;BME280;6924;52.122;9.952;2022-11-03T00:36:31;100792.97;;;9.57;74.71
13705;BME280;6924;52.122;9.952;2022-11-03T00:38:58;100791.59;;;9.54;74.67
13705;BME280;6924;52.122;9.952;2022-11-03T00:41:25;100799.22;;;9.54;75.09
13705;BME280;6924;52.122;9.952;2022-11-03T00:43:52;100797.22;;;9.54;74.41
13705;BME280;6924;52.122;9.952;2022-11-03T00:46:20;100793.81;;;9.57;74.86
13705;BME280;6924;52.122;9.952;2022-11-03T00:48:48;100798.03;;;9.60;74.49
13705;BME280;6924;52.122;9.952;2022-11-03T00:51:17;100789.09;;;9.52;74.87
13705;BME280;6924;52.122;9.952;2022-11-03T00:53:45;100783.81;;;9.46;75.47
13705;BME280;6924;52.122;9.952;2022-11-03T00:56:13;100782.28;;;9.54;74.40
13705;BME280;6924;52.122;9.952;2022-11-03T00:58:40;100787.56;;;9.60;74.65
13705;BME280;6924;52.122;9.952;2022-11-03T01:01:10;100781.19;;;9.49;74.21
13705;BME280;6924;52.122;9.952;2022-11-03T01:03:39;100776.34;;;9.55;74.82
13705;BME280;6924;52.122;9.952;2022-11-03T01:06:10;100777.84;;;9.47;74.60
13705;BME280;6924;52.122;9.952;2022-11-03T01:09:03;100780.91;;;9.51;75.29
13705;BME280;6924;52.122;9.952;2022-11-03T01:11:29;100778.91;;;9.51;74.72
13705;BME280;6924;52.122;9.952;2022-11-03T01:14:14;100772.19;;;9.47;75.16
13705;BME280;6924;52.122;9.952;2022-11-03T01:16:40;100769.31;;;9.52;74.39
13705;BME280;6924;52.122;9.952;2022-11-03T01:19:07;100765.34;;;9.54;73.95
13705;BME280;6924;52.122;9.952;2022-11-03T01:21:35;100762.81;;;9.52;73.62
13705;BME280;6924;52.122;9.952;2022-11-03T01:24:02;100779.28;;;9.45;75.03
13705;BME280;6924;52.122;9.952;2022-11-03T01:26:29;100755.50;;;9.51;74.96
13705;BME280;6924;52.122;9.952;2022-11-03T01:28:58;100762.22;;;9.55;74.14
13705;BME280;6924;52.122;9.952;2022-11-03T01:31:25;100761.44;;;9.49;73.93
13705;BME280;6924;52.122;9.952;2022-11-03T01:33:53;100753.78;;;9.50;74.12
13705;BME280;6924;52.122;9.952;2022-11-03T01:36:21;100750.44;;;9.48;74.29
13705;BME280;6924;52.122;9.952;2022-11-03T01:38:49;100746.78;;;9.47;74.30
13705;BME280;6924;52.122;9.952;2022-11-03T01:41:17;100746.72;;;9.52;74.72
13705;BME280;6924;52.122;9.952;2022-11-03T01:43:46;100739.63;;;9.55;74.41
13705;BME280;6924;52.122;9.952;2022-11-03T01:46:15;100734.81;;;9.56;74.66
13705;BME280;6924;52.122;9.952;2022-11-03T01:48:47;100729.69;;;9.58;74.38
13705;BME280;6924;52.122;9.952;2022-11-03T01:51:16;100727.50;;;9.55;73.74
13705;BME280;6924;52.122;9.952;2022-11-03T01:53:48;100723.44;;;9.61;74.12
13705;BME280;6924;52.122;9.952;2022-11-03T01:56:18;100721.47;;;9.61;73.45
13705;BME280;6924;52.122;9.952;2022-11-03T01:58:47;100724.22;;;9.66;73.43
13705;BME280;6924;52.122;9.952;2022-11-03T02:01:15;100714.66;;;9.62;73.96
13705;BME280;6924;52.122;9.952;2022-11-03T02:03:45;100711.41;;;9.55;73.40
13705;BME280;6924;52.122;9.952;2022-11-03T02:06:14;100705.41;;;9.57;73.66
13705;BME280;6924;52.122;9.952;2022-11-03T02:08:44;100699.47;;;9.58;73.78
13705;BME280;6924;52.122;9.952;2022-11-03T02:11:14;100696.34;;;9.60;73.82
13705;BME280;6924;52.122;9.952;2022-11-03T02:13:58;100690.09;;;9.63;73.42
13705;BME280;6924;52.122;9.952;2022-11-03T02:16:25;100690.78;;;9.55;73.52
13705;BME280;6924;52.122;9.952;2022-11-03T02:18:55;100688.09;;;9.63;73.61
13705;BME280;6924;52.122;9.952;2022-11-03T02:21:26;100677.72;;;9.59;73.99
13705;BME280;6924;52.122;9.952;2022-11-03T02:23:59;100684.91;;;9.51;74.08
13705;BME280;6924;52.122;9.952;2022-11-03T02:26:29;100681.78;;;9.52;73.67
13705;BME280;6924;52.122;9.952;2022-11-03T02:28:56;100694.88;;;9.43;74.31
13705;BME280;6924;52.122;9.952;2022-11-03T02:31:28;100679.72;;;9.39;74.45
13705;BME280;6924;52.122;9.952;2022-11-03T02:34:03;100668.56;;;9.48;74.15
13705;BME280;6924;52.122;9.952;2022-11-03T02:36:36;100668.94;;;9.60;74.42
13705;BME280;6924;52.122;9.952;2022-11-03T02:39:10;100674.34;;;9.57;74.80
13705;BME280;6924;52.122;9.952;2022-11-03T02:41:40;100669.25;;;9.59;74.62
13705;BME280;6924;52.122;9.952;2022-11-03T02:44:12;100669.56;;;9.57;74.65
13705;BME280;6924;52.122;9.952;2022-11-03T02:46:40;100656.28;;;9.58;74.13
13705;BME280;6924;52.122;9.952;2022-11-03T02:49:08;100670.56;;;9.66;74.09
13705;BME280;6924;52.122;9.952;2022-11-03T02:51:35;100659.34;;;9.61;73.73
13705;BME280;6924;52.122;9.952;2022-11-03T02:54:05;100650.88;;;9.61;73.91
13705;BME280;6924;52.122;9.952;2022-11-03T02:56:37;100651.91;;;9.65;73.28
13705;BME280;6924;52.122;9.952;2022-11-03T02:59:11;100668.31;;;9.63;73.40
13705;BME280;6924;52.122;9.952;2022-11-03T03:01:44;100661.94;;;9.58;73.22
13705;BME280;6924;52.122;9.952;2022-11-03T03:04:17;100653.75;;;9.56;74.00
13705;BME280;6924;52.122;9.952;2022-11-03T03:06:49;100650.09;;;9.56;73.81
13705;BME280;6924;52.122;9.952;2022-11-03T03:09:20;100638.56;;;9.52;73.80
13705;BME280;6924;52.122;9.952;2022-11-03T03:11:50;100638.28;;;9.54;73.26
13705;BME280;6924;52.122;9.952;2022-11-03T03:14:20;100644.31;;;9.47;74.00
13705;BME280;6924;52.122;9.952;2022-11-03T03:16:53;100647.06;;;9.33;75.09
13705;BME280;6924;52.122;9.952;2022-11-03T03:19:33;100633.69;;;9.39;74.24
13705;BME280;6924;52.122;9.952;2022-11-03T03:22:19;100633.94;;;9.42;74.26
13705;BME280;6924;52.122;9.952;2022-11-03T03:24:51;100630.88;;;9.39;74.93
13705;BME280;6924;52.122;9.952;2022-11-03T03:27:19;100631.94;;;9.43;74.42
13705;BME280;6924;52.122;9.952;2022-11-03T03:29:52;100636.84;;;9.37;74.71
13705;BME280;6924;52.122;9.952;2022-11-03T03:32:21;100641.25;;;9.43;74.86
13705;BME280;6924;52.122;9.952;2022-11-03T03:34:50;100634.56;;;9.39;74.86
13705;BME280;6924;52.122;9.952;2022-11-03T03:37:18;100620.25;;;9.49;74.76
13705;BME280;6924;52.122;9.952;2022-11-03T03:39:50;100617.22;;;9.46;74.71
13705;BME280;6924;52.122;9.952;2022-11-03T03:42:19;100617.44;;;9.49;75.04
13705;BME280;6924;52.122;9.952;2022-11-03T03:44:47;100614.91;;;9.48;74.97
13705;BME280;6924;52.122;9.952;2022-11-03T03:47:21;100610.97;;;9.49;75.63
13705;BME280;6924;52.122;9.952;2022-11-03T03:49:48;100607.84;;;9.50;75.48
13705;BME280;6924;52.122;9.952;2022-11-03T03:52:14;100606.38;;;9.53;75.96
13705;BME280;6924;52.122;9.952;2022-11-03T03:54:41;100595.28;;;9.57;75.35
13705;BME280;6924;52.122;9.952;2022-11-03T03:57:11;100597.66;;;9.49;75.08
13705;BME280;6924;52.122;9.952;2022-11-03T03:59:40;100594.84;;;9.49;75.96
13705;BME280;6924;52.122;9.952;2022-11-03T04:02:06;100583.84;;;9.48;75.63
13705;BME280;6924;52.122;9.952;2022-11-03T04:04:34;100585.41;;;9.40;76.24
13705;BME280;6924;52.122;9.952;2022-11-03T04:07:01;100584.19;;;9.46;75.89
13705;BME280;6924;52.122;9.952;2022-11-03T04:09:45;100576.53;;;9.47;75.94
13705;BME280;6924;52.122;9.952;2022-11-03T04:12:11;100571.72;;;9.47;76.18
13705;BME280;6924;52.122;9.952;2022-11-03T04:14:55;100557.16;;;9.40;76.38
13705;BME280;6924;52.122;9.952;2022-11-03T04:17:42;100558.34;;;9.39;75.81
13705;BME280;6924;52.122;9.952;2022-11-03T04:20:29;100565.63;;;9.40;76.75
13705;BME280;6924;52.122;9.952;2022-11-03T04:23:14;100543.28;;;9.44;76.63
13705;BME280;6924;52.122;9.952;2022-11-03T04:25:41;100544.25;;;9.53;75.98
13705;BME280;6924;52.122;9.952;2022-11-03T04:28:09;100537.78;;;9.52;76.24
13705;BME280;6924;52.122;9.952;2022-11-03T04:30:38;100532.03;;;9.58;75.43
13705;BME280;6924;52.122;9.952;2022-11-03T04:33:10;100537.78;;;9.52;76.00
13705;BME280;6924;52.122;9.952;2022-11-03T04:35:39;100528.06;;;9.59;75.60
13705;BME280;6924;52.122;9.952;2022-11-03T04:38:20;100540.50;;;9.58;76.06
13705;BME280;6924;52.122;9.952;2022-11-03T04:40:49;100536.22;;;9.60;75.85
13705;BME280;6924;52.122;9.952;2022-11-03T04:43:19;100528.50;;;9.66;75.25
13705;BME280;6924;52.122;9.952;2022-11-03T04:45:47;100528.50;;;9.66;75.56
13705;BME280;6924;52.122;9.952;2022-11-03T04:48:17;100538.94;;;9.65;75.13
13705;BME280;6924;52.122;9.952;2022-11-03T04:50:46;100534.75;;;9.63;75.50
13705;BME280;6924;52.122;9.952;2022-11-03T04:53:15;100525.47;;;9.62;75.36
13705;BME280;6924;52.122;9.952;2022-11-03T04:55:43;100522.50;;;9.54;75.75
13705;BME280;6924;52.122;9.952;2022-11-03T04:58:16;100523.72;;;9.47;76.07
13705;BME280;6924;52.122;9.952;2022-11-03T05:00:43;100520.75;;;9.58;75.91
13705;BME280;6924;52.122;9.952;2022-11-03T05:03:14;100517.91;;;9.58;75.79
13705;BME280;6924;52.122;9.952;2022-11-03T05:05:42;100514.78;;;9.59;75.14
13705;BME280;6924;52.122;9.952;2022-11-03T05:08:10;100526.91;;;9.60;75.64
13705;BME280;6924;52.122;9.952;2022-11-03T05:10:37;100509.44;;;9.58;75.46
13705;BME280;6924;52.122;9.952;2022-11-03T05:13:08;100512.97;;;9.49;76.37
13705;BME280;6924;52.122;9.952;2022-11-03T05:15:42;100514.13;;;9.48;75.90
13705;BME280;6924;52.122;9.952;2022-11-03T05:18:15;100522.06;;;9.46;76.25
13705;BME280;6924;52.122;9.952;2022-11-03T05:20:47;100507.41;;;9.44;76.61
13705;BME280;6924;52.122;9.952;2022-11-03T05:23:17;100497.09;;;9.54;76.33
13705;BME280;6924;52.122;9.952;2022-11-03T05:25:46;100505.66;;;9.48;76.16
13705;BME280;6924;52.122;9.952;2022-11-03T05:28:20;100502.50;;;9.50;76.24
13705;BME280;6924;52.122;9.952;2022-11-03T05:30:47;100490.19;;;9.46;76.36
13705;BME280;6924;52.122;9.952;2022-11-03T05:33:23;100485.22;;;9.38;76.66
13705;BME280;6924;52.122;9.952;2022-11-03T05:35:50;100481.06;;;9.35;77.11
13705;BME280;6924;52.122;9.952;2022-11-03T05:38:20;100482.72;;;9.36;77.38
13705;BME280;6924;52.122;9.952;2022-11-03T05:40:49;100486.75;;;9.30;78.08
13705;BME280;6924;52.122;9.952;2022-11-03T05:43:17;100486.31;;;9.23;78.05
13705;BME280;6924;52.122;9.952;2022-11-03T05:45:44;100492.09;;;9.31;78.08
13705;BME280;6924;52.122;9.952;2022-11-03T05:48:15;100495.69;;;9.37;77.75
13705;BME280;6924;52.122;9.952;2022-11-03T05:50:43;100483.16;;;9.43;77.47
13705;BME280;6924;52.122;9.952;2022-11-03T05:53:30;100481.38;;;9.47;77.12
13705;BME280;6924;52.122;9.952;2022-11-03T05:55:59;100473.25;;;9.46;76.81
13705;BME280;6924;52.122;9.952;2022-11-03T05:58:30;100474.59;;;9.48;76.95
13705;BME280;6924;52.122;9.952;2022-11-03T06:00:59;100477.44;;;9.48;77.13
13705;BME280;6924;52.122;9.952;2022-11-03T06:03:27;100478.56;;;9.47;77.10
13705;BME280;6924;52.122;9.952;2022-11-03T06:05:54;100472.50;;;9.54;76.92
13705;BME280;6924;52.122;9.952;2022-11-03T06:08:24;100471.03;;;9.57;76.55
13705;BME280;6924;52.122;9.952;2022-11-03T06:10:54;100475.97;;;9.65;76.28
13705;BME280;6924;52.122;9.952;2022-11-03T06:13:24;100479.09;;;9.63;76.61
13705;BME280;6924;52.122;9.952;2022-11-03T06:15:55;100479.03;;;9.68;76.48
13705;BME280;6924;52.122;9.952;2022-11-03T06:18:25;100480.28;;;9.76;76.13
13705;BME280;6924;52.122;9.952;2022-11-03T06:20:57;100482.81;;;9.78;76.42
13705;BME280;6924;52.122;9.952;2022-11-03T06:23:25;100485.84;;;9.81;76.61
13705;BME280;6924;52.122;9.952;2022-11-03T06:25:54;100478.53;;;9.80;76.09
13705;BME280;6924;52.122;9.952;2022-11-03T06:28:24;100478.09;;;9.73;76.11
13705;BME280;6924;52.122;9.952;2022-11-03T06:30:52;100480.41;;;9.71;75.68
13705;BME280;6924;52.122;9.952;2022-11-03T06:33:22;100487.63;;;9.77;75.44
13705;BME280;6924;52.122;9.952;2022-11-03T06:35:50;100480.63;;;9.75;75.71
13705;BME280;6924;52.122;9.952;2022-11-03T06:38:20;100478.94;;;9.73;75.34
13705;BME280;6924;52.122;9.952;2022-11-03T06:40:50;100477.88;;;9.69;75.92
13705;BME280;6924;52.122;9.952;2022-11-03T06:43:21;100479.38;;;9.48;76.63
13705;BME280;6924;52.122;9.952;2022-11-03T06:45:50;100477.19;;;9.45;76.74
13705;BME280;6924;52.122;9.952;2022-11-03T06:48:25;100477.44;;;9.48;76.56
13705;BME280;6924;52.122;9.952;2022-11-03T06:50:53;100474.81;;;9.52;76.45
13705;BME280;6924;52.122;9.952;2022-11-03T06:53:22;100473.66;;;9.53;76.74
13705;BME280;6924;52.122;9.952;2022-11-03T06:55:50;100466.56;;;9.56;77.01
13705;BME280;6924;52.122;9.952;2022-11-03T06:58:23;100462.06;;;9.55;77.08
13705;BME280;6924;52.122;9.952;2022-11-03T07:00:52;100469.66;;;9.40;77.64
13705;BME280;6924;52.122;9.952;2022-11-03T07:03:23;100471.22;;;9.33;77.79
13705;BME280;6924;52.122;9.952;2022-11-03T07:05:55;100464.13;;;9.35;78.02
13705;BME280;6924;52.122;9.952;2022-11-03T07:08:24;100456.06;;;9.42;78.06
13705;BME280;6924;52.122;9.952;2022-11-03T07:10:58;100452.59;;;9.31;78.71
13705;BME280;6924;52.122;9.952;2022-11-03T07:13:28;100454.47;;;9.36;78.33
13705;BME280;6924;52.122;9.952;2022-11-03T07:15:56;100446.84;;;9.37;79.35
13705;BME280;6924;52.122;9.952;2022-11-03T07:18:25;100433.78;;;9.41;79.04
13705;BME280;6924;52.122;9.952;2022-11-03T07:20:53;100433.38;;;9.47;78.53
13705;BME280;6924;52.122;9.952;2022-11-03T07:23:23;100432.78;;;9.50;78.66
13705;BME280;6924;52.122;9.952;2022-11-03T07:25:52;100433.19;;;9.58;78.65
13705;BME280;6924;52.122;9.952;2022-11-03T07:28:20;100438.44;;;9.64;78.42
13705;BME280;6924;52.122;9.952;2022-11-03T07:30:48;100429.44;;;9.62;79.43
13705;BME280;6924;52.122;9.952;2022-11-03T07:33:19;100419.63;;;9.60;79.45
13705;BME280;6924;52.122;9.952;2022-11-03T07:35:47;100420.97;;;9.62;78.82
13705;BME280;6924;52.122;9.952;2022-11-03T07:38:19;100415.72;;;9.56;79.98
13705;BME280;6924;52.122;9.952;2022-11-03T07:40:46;100421.19;;;9.66;79.54
13705;BME280;6924;52.122;9.952;2022-11-03T07:43:16;100421.81;;;9.63;79.99
13705;BME280;6924;52.122;9.952;2022-11-03T07:45:47;100406.03;;;9.62;80.38
13705;BME280;6924;52.122;9.952;2022-11-03T07:48:20;100410.44;;;9.68;80.47
13705;BME280;6924;52.122;9.952;2022-11-03T07:50:47;100408.97;;;9.70;80.59
13705;BME280;6924;52.122;9.952;2022-11-03T07:53:19;100402.78;;;9.68;80.32
13705;BME280;6924;52.122;9.952;2022-11-03T07:55:46;100401.84;;;9.73;80.04
13705;BME280;6924;52.122;9.952;2022-11-03T07:58:20;100401.00;;;9.72;81.33
13705;BME280;6924;52.122;9.952;2022-11-03T08:00:47;100390.44;;;9.78;80.76
13705;BME280;6924;52.122;9.952;2022-11-03T08:03:24;100396.38;;;9.77;81.63
13705;BME280;6924;52.122;9.952;2022-11-03T08:05:52;100384.06;;;9.86;81.53
13705;BME280;6924;52.122;9.952;2022-11-03T08:08:19;100380.06;;;9.87;81.07
13705;BME280;6924;52.122;9.952;2022-11-03T08:10:45;100371.16;;;9.94;80.76
13705;BME280;6924;52.122;9.952;2022-11-03T08:13:11;100373.03;;;9.99;80.49
13705;BME280;6924;52.122;9.952;2022-11-03T08:15:38;100357.56;;;9.96;80.53
13705;BME280;6924;52.122;9.952;2022-11-03T08:18:05;100359.13;;;10.02;80.74
13705;BME280;6924;52.122;9.952;2022-11-03T08:20:33;100350.66;;;10.02;79.87
13705;BME280;6924;52.122;9.952;2022-11-03T08:22:59;100349.28;;;10.00;80.50
13705;BME280;6924;52.122;9.952;2022-11-03T08:25:26;100347.59;;;9.99;80.72
13705;BME280;6924;52.122;9.952;2022-11-03T08:27:52;100343.66;;;10.00;80.76
13705;BME280;6924;52.122;9.952;2022-11-03T08:30:19;100344.03;;;10.07;80.51
13705;BME280;6924;52.122;9.952;2022-11-03T08:32:46;100346.00;;;10.20;79.94
13705;BME280;6924;52.122;9.952;2022-11-03T08:35:13;100338.69;;;10.19;80.08
13705;BME280;6924;52.122;9.952;2022-11-03T08:37:41;100342.97;;;10.30;79.94
13705;BME280;6924;52.122;9.952;2022-11-03T08:40:08;100345.91;;;10.25;80.49
13705;BME280;6924;52.122;9.952;2022-11-03T08:42:35;100332.06;;;10.38;80.11
13705;BME280;6924;52.122;9.952;2022-11-03T08:45:02;100328.94;;;10.39;80.24
13705;BME280;6924;52.122;9.952;2022-11-03T08:47:28;100313.31;;;10.42;80.10
13705;BME280;6924;52.122;9.952;2022-11-03T08:49:55;100308.25;;;10.52;79.59
13705;BME280;6924;52.122;9.952;2022-11-03T08:52:21;100305.78;;;10.60;79.26
13705;BME280;6924;52.122;9.952;2022-11-03T08:54:49;100304.50;;;10.66;78.88
13705;BME280;6924;52.122;9.952;2022-11-03T08:57:16;100303.69;;;10.65;79.11
13705;BME280;6924;52.122;9.952;2022-11-03T08:59:42;100288.38;;;10.66;78.93
13705;BME280;6924;52.122;9.952;2022-11-03T09:02:09;100286.19;;;10.63;79.07
13705;BME280;6924;52.122;9.952;2022-11-03T09:04:35;100282.41;;;10.68;79.55
13705;BME280;6924;52.122;9.952;2022-11-03T09:07:02;100276.59;;;10.73;79.66
13705;BME280;6924;52.122;9.952;2022-11-03T09:09:28;100285.66;;;10.84;78.59
13705;BME280;6924;52.122;9.952;2022-11-03T09:11:56;100272.84;;;10.86;78.71
13705;BME280;6924;52.122;9.952;2022-11-03T09:14:23;100275.03;;;10.89;78.50
13705;BME280;6924;52.122;9.952;2022-11-03T09:16:49;100287.19;;;10.90;78.60
13705;BME280;6924;52.122;9.952;2022-11-03T09:19:16;100277.56;;;11.00;77.69
13705;BME280;6924;52.122;9.952;2022-11-03T09:21:43;100268.50;;;11.11;78.17
13705;BME280;6924;52.122;9.952;2022-11-03T09:24:09;100265.38;;;11.22;77.18
13705;BME280;6924;52.122;9.952;2022-11-03T09:26:36;100269.41;;;11.29;77.25
13705;BME280;6924;52.122;9.952;2022-11-03T09:29:04;100256.78;;;11.35;76.37
13705;BME280;6924;52.122;9.952;2022-11-03T09:31:30;100253.44;;;11.33;77.08
13705;BME280;6924;52.122;9.952;2022-11-03T09:33:57;100256.91;;;11.30;76.80
13705;BME280;6924;52.122;9.952;2022-11-03T09:36:23;100265.94;;;11.41;76.98
13705;BME280;6924;52.122;9.952;2022-11-03T09:38:50;100252.28;;;11.43;76.71
13705;BME280;6924;52.122;9.952;2022-11-03T09:41:16;100252.63;;;11.50;76.69
13705;BME280;6924;52.122;9.952;2022-11-03T09:43:43;100247.13;;;11.45;76.99
13705;BME280;6924;52.122;9.952;2022-11-03T09:46:12;100244.31;;;11.45;76.55
13705;BME280;6924;52.122;9.952;2022-11-03T09:48:40;100243.97;;;11.47;76.82
13705;BME280;6924;52.122;9.952;2022-11-03T09:51:09;100245.97;;;11.55;76.90
13705;BME280;6924;52.122;9.952;2022-11-03T09:53:36;100236.69;;;11.63;76.59
13705;BME280;6924;52.122;9.952;2022-11-03T09:56:03;100240.16;;;11.51;77.40
13705;BME280;6924;52.122;9.952;2022-11-03T09:58:32;100238.47;;;11.50;76.99
13705;BME280;6924;52.122;9.952;2022-11-03T10:00:59;100233.66;;;11.51;76.99
13705;BME280;6924;52.122;9.952;2022-11-03T10:03:27;100236.66;;;11.54;76.62
13705;BME280;6924;52.122;9.952;2022-11-03T10:05:54;100229.69;;;11.61;76.80
13705;BME280;6924;52.122;9.952;2022-11-03T10:08:23;100213.84;;;11.59;76.35
13705;BME280;6924;52.122;9.952;2022-11-03T10:10:51;100191.69;;;11.62;77.30
13705;BME280;6924;52.122;9.952;2022-11-03T10:13:22;100178.50;;;11.57;77.16
13705;BME280;6924;52.122;9.952;2022-11-03T10:15:51;100181.34;;;11.66;77.14
13705;BME280;6924;52.122;9.952;2022-11-03T10:18:17;100198.22;;;11.71;77.47
13705;BME280;6924;52.122;9.952;2022-11-03T10:20:46;100207.88;;;11.78;77.50
13705;BME280;6924;52.122;9.952;2022-11-03T10:23:12;100210.72;;;11.87;77.08
13705;BME280;6924;52.122;9.952;2022-11-03T10:25:40;100194.56;;;11.88;76.60
13705;BME280;6924;52.122;9.952;2022-11-03T10:28:25;100192.38;;;11.85;76.62
13705;BME280;6924;52.122;9.952;2022-11-03T10:30:54;100189.88;;;11.83;76.20
13705;BME280;6924;52.122;9.952;2022-11-03T10:33:29;100189.72;;;11.97;77.76
13705;BME280;6924;52.122;9.952;2022-11-03T10:35:58;100196.59;;;12.05;77.40
13705;BME280;6924;52.122;9.952;2022-11-03T10:38:27;100185.56;;;12.12;76.15
13705;BME280;6924;52.122;9.952;2022-11-03T10:40:56;100196.91;;;12.12;75.75
13705;BME280;6924;52.122;9.952;2022-11-03T10:43:22;100187.56;;;12.20;76.16
13705;BME280;6924;52.122;9.952;2022-11-03T10:45:49;100181.06;;;12.19;75.62
13705;BME280;6924;52.122;9.952;2022-11-03T10:48:19;100179.69;;;12.26;75.61
13705;BME280;6924;52.122;9.952;2022-11-03T10:50:46;100182.53;;;12.26;76.30
13705;BME280;6924;52.122;9.952;2022-11-03T10:53:16;100163.19;;;12.19;75.81
13705;BME280;6924;52.122;9.952;2022-11-03T10:55:43;100159.03;;;12.16;75.62
13705;BME280;6924;52.122;9.952;2022-11-03T10:58:10;100160.22;;;12.15;76.10
13705;BME280;6924;52.122;9.952;2022-11-03T11:00:39;100163.53;;;12.26;76.25
13705;BME280;6924;52.122;9.952;2022-11-03T11:03:05;100155.38;;;12.25;75.60
13705;BME280;6924;52.122;9.952;2022-11-03T11:05:32;100149.00;;;12.36;75.28
13705;BME280;6924;52.122;9.952;2022-11-03T11:07:59;100141.78;;;12.48;75.32
13705;BME280;6924;52.122;9.952;2022-11-03T11:10:29;100133.78;;;12.50;75.06
13705;BME280;6924;52.122;9.952;2022-11-03T11:13:03;100128.44;;;12.57;74.94
13705;BME280;6924;52.122;9.952;2022-11-03T11:15:36;100136.22;;;12.69;75.62
13705;BME280;6924;52.122;9.952;2022-11-03T11:18:03;100131.38;;;12.69;74.38
13705;BME280;6924;52.122;9.952;2022-11-03T11:20:35;100118.13;;;12.82;74.59
13705;BME280;6924;52.122;9.952;2022-11-03T11:26:29;100104.94;;;12.86;74.24
13705;BME280;6924;52.122;9.952;2022-11-03T11:39:03;100069.78;;;12.99;73.17
13705;BME280;6924;52.122;9.952;2022-11-03T11:42:08;100052.44;;;13.01;73.07
13705;BME280;6924;52.122;9.952;2022-11-03T11:47:42;100040.84;;;13.06;73.42
13705;BME280;6924;52.122;9.952;2022-11-03T11:50:23;100031.03;;;13.03;73.67
13705;BME280;6924;52.122;9.952;2022-11-03T11:52:55;100020.41;;;12.92;73.52
13705;BME280;6924;52.122;9.952;2022-11-03T11:55:29;100020.28;;;12.88;73.52
13705;BME280;6924;52.122;9.952;2022-11-03T11:57:59;100017.09;;;12.90;73.72
13705;BME280;6924;52.122;9.952;2022-11-03T12:00:29;100019.25;;;12.93;73.79
13705;BME280;6924;52.122;9.952;2022-11-03T12:02:56;100005.47;;;13.03;73.23
13705;BME280;6924;52.122;9.952;2022-11-03T12:05:25;100003.19;;;12.97;73.13
13705;BME280;6924;52.122;9.952;2022-11-03T12:07:54;99982.69;;;12.91;73.29
13705;BME280;6924;52.122;9.952;2022-11-03T12:10:22;99985.09;;;12.80;74.12
13705;BME280;6924;52.122;9.952;2022-11-03T12:12:50;99983.88;;;12.90;74.11
13705;BME280;6924;52.122;9.952;2022-11-03T12:18:34;99966.97;;;12.94;73.34
13705;BME280;6924;52.122;9.952;2022-11-03T12:21:02;99951.13;;;12.93;73.43
13705;BME280;6924;52.122;9.952;2022-11-03T12:23:37;99947.56;;;12.96;73.65
13705;BME280;6924;52.122;9.952;2022-11-03T12:26:13;99939.00;;;13.05;72.79
13705;BME280;6924;52.122;9.952;2022-11-03T12:28:39;99936.16;;;13.05;72.74
13705;BME280;6924;52.122;9.952;2022-11-03T12:31:06;99933.47;;;13.08;71.86
13705;BME280;6924;52.122;9.952;2022-11-03T12:33:34;99926.41;;;13.14;72.53
13705;BME280;6924;52.122;9.952;2022-11-03T12:36:01;99916.19;;;13.13;72.81
13705;BME280;6924;52.122;9.952;2022-11-03T12:38:27;99907.25;;;13.23;72.11
13705;BME280;6924;52.122;9.952;2022-11-03T12:40:54;99901.19;;;13.13;71.23
13705;BME280;6924;52.122;9.952;2022-11-03T12:43:20;99902.56;;;13.07;72.18
13705;BME280;6924;52.122;9.952;2022-11-03T12:45:47;99904.66;;;13.18;71.51
13705;BME280;6924;52.122;9.952;2022-11-03T12:48:13;99905.59;;;13.22;71.31
13705;BME280;6924;52.122;9.952;2022-11-03T12:50:41;99906.06;;;13.24;70.96
13705;BME280;6924;52.122;9.952;2022-11-03T12:53:07;99908.91;;;13.24;70.97
13705;BME280;6924;52.122;9.952;2022-11-03T12:55:34;99900.38;;;13.24;70.68
13705;BME280;6924;52.122;9.952;2022-11-03T12:58:00;99895.75;;;13.20;71.42
13705;BME280;6924;52.122;9.952;2022-11-03T13:00:28;99890.44;;;13.18;71.68
13705;BME280;6924;52.122;9.952;2022-11-03T13:02:54;99877.66;;;13.12;71.01
13705;BME280;6924;52.122;9.952;2022-11-03T13:05:21;99870.56;;;13.18;71.15
13705;BME280;6924;52.122;9.952;2022-11-03T13:07:51;99875.78;;;13.16;71.08
13705;BME280;6924;52.122;9.952;2022-11-03T13:10:18;99867.38;;;13.20;70.24
13705;BME280;6924;52.122;9.952;2022-11-03T13:12:45;99860.72;;;13.16;70.55
13705;BME280;6924;52.122;9.952;2022-11-03T13:15:11;99848.06;;;13.13;71.38
13705;BME280;6924;52.122;9.952;2022-11-03T13:17:40;99854.44;;;13.10;71.29
13705;BME280;6924;52.122;9.952;2022-11-03T13:20:08;99852.78;;;13.09;71.67
13705;BME280;6924;52.122;9.952;2022-11-03T13:22:35;99855.91;;;13.16;71.47
13705;BME280;6924;52.122;9.952;2022-11-03T13:25:04;99857.78;;;13.24;71.18
13705;BME280;6924;52.122;9.952;2022-11-03T13:27:31;99861.13;;;13.27;70.24
13705;BME280;6924;52.122;9.952;2022-11-03T13:29:58;99851.03;;;13.17;69.83
13705;BME280;6924;52.122;9.952;2022-11-03T13:32:24;99846.81;;;13.23;69.81
13705;BME280;6924;52.122;9.952;2022-11-03T13:34:51;99845.34;;;13.17;70.81
13705;BME280;6924;52.122;9.952;2022-11-03T13:37:17;99827.84;;;13.15;71.00
13705;BME280;6924;52.122;9.952;2022-11-03T13:39:44;99817.41;;;13.07;70.15